sensor_id;sensor_type;location;lat;lon;timestamp;P1;durP1;ratioP1;P2;durP2;ratioP2
77298;SDS011;66361;52.034;20.656;2023-05-29T00:03:54;8.98;;;5.53;;
77298;SDS011;66361;52.034;20.656;2023-05-29T00:07:57;7.93;;;5.82;;
77298;SDS011;66361;52.034;20.656;2023-05-29T00:12:00;6.72;;;5.15;;
77298;SDS011;66361;52.034;20.656;2023-05-29T00:16:05;6.80;;;4.78;;
77298;SDS011;66361;52.034;20.656;2023-05-29T00:20:11;11.00;;;5.05;;
77298;SDS011;66361;52.034;20.656;2023-05-29T00:24:21;8.07;;;5.68;;
77298;SDS011;66361;52.034;20.656;2023-05-29T00:28:24;9.68;;;5.95;;
77298;SDS011;66361;52.034;20.656;2023-05-29T00:36:40;7.20;;;4.47;;
77298;SDS011;66361;52.034;20.656;2023-05-29T00:40:43;8.32;;;4.97;;
77298;SDS011;66361;52.034;20.656;2023-05-29T00:44:46;10.23;;;4.82;;
77298;SDS011;66361;52.034;20.656;2023-05-29T00:48:50;8.55;;;4.20;;
77298;SDS011;66361;52.034;20.656;2023-05-29T00:57:23;7.20;;;4.45;;
77298;SDS011;66361;52.034;20.656;2023-05-29T01:01:26;10.80;;;6.35;;
77298;SDS011;66361;52.034;20.656;2023-05-29T01:05:36;10.32;;;4.88;;
77298;SDS011;66361;52.034;20.656;2023-05-29T01:09:45;8.15;;;5.45;;
77298;SDS011;66361;52.034;20.656;2023-05-29T01:13:48;7.65;;;4.97;;
77298;SDS011;66361;52.034;20.656;2023-05-29T01:18:01;7.95;;;4.80;;
77298;SDS011;66361;52.034;20.656;2023-05-29T01:22:24;10.63;;;4.85;;
77298;SDS011;66361;52.034;20.656;2023-05-29T01:26:45;9.13;;;5.25;;
77298;SDS011;66361;52.034;20.656;2023-05-29T01:30:51;10.20;;;4.80;;
77298;SDS011;66361;52.034;20.656;2023-05-29T01:34:58;8.25;;;5.60;;
77298;SDS011;66361;52.034;20.656;2023-05-29T01:39:01;8.20;;;4.85;;
77298;SDS011;66361;52.034;20.656;2023-05-29T01:43:05;6.57;;;4.68;;
77298;SDS011;66361;52.034;20.656;2023-05-29T01:47:09;7.22;;;4.20;;
77298;SDS011;66361;52.034;20.656;2023-05-29T01:51:16;8.23;;;4.85;;
77298;SDS011;66361;52.034;20.656;2023-05-29T01:59:25;6.47;;;4.22;;
77298;SDS011;66361;52.034;20.656;2023-05-29T02:03:29;6.88;;;4.43;;
77298;SDS011;66361;52.034;20.656;2023-05-29T02:07:32;6.82;;;4.22;;
77298;SDS011;66361;52.034;20.656;2023-05-29T02:11:38;6.85;;;4.05;;
77298;SDS011;66361;52.034;20.656;2023-05-29T02:16:11;6.45;;;3.80;;
77298;SDS011;66361;52.034;20.656;2023-05-29T02:20:14;5.95;;;3.90;;
77298;SDS011;66361;52.034;20.656;2023-05-29T02:24:18;6.78;;;3.95;;
77298;SDS011;66361;52.034;20.656;2023-05-29T02:28:29;7.00;;;4.28;;
77298;SDS011;66361;52.034;20.656;2023-05-29T02:32:33;6.55;;;4.28;;
77298;SDS011;66361;52.034;20.656;2023-05-29T02:36:36;8.27;;;4.22;;
77298;SDS011;66361;52.034;20.656;2023-05-29T02:40:43;10.68;;;5.10;;
77298;SDS011;66361;52.034;20.656;2023-05-29T02:45:10;7.90;;;4.45;;
77298;SDS011;66361;52.034;20.656;2023-05-29T02:49:18;5.25;;;3.58;;
77298;SDS011;66361;52.034;20.656;2023-05-29T02:53:23;8.45;;;3.92;;
77298;SDS011;66361;52.034;20.656;2023-05-29T02:57:49;9.00;;;5.05;;
77298;SDS011;66361;52.034;20.656;2023-05-29T03:01:56;6.68;;;4.05;;
77298;SDS011;66361;52.034;20.656;2023-05-29T03:06:00;5.63;;;3.45;;
77298;SDS011;66361;52.034;20.656;2023-05-29T03:10:04;6.00;;;4.47;;
77298;SDS011;66361;52.034;20.656;2023-05-29T03:14:08;8.25;;;4.20;;
77298;SDS011;66361;52.034;20.656;2023-05-29T03:18:13;9.00;;;4.40;;
77298;SDS011;66361;52.034;20.656;2023-05-29T03:22:18;6.13;;;4.07;;
77298;SDS011;66361;52.034;20.656;2023-05-29T03:26:21;8.77;;;4.68;;
77298;SDS011;66361;52.034;20.656;2023-05-29T03:30:24;8.98;;;3.85;;
77298;SDS011;66361;52.034;20.656;2023-05-29T03:38:32;5.25;;;3.80;;
77298;SDS011;66361;52.034;20.656;2023-05-29T03:42:37;7.22;;;4.28;;
77298;SDS011;66361;52.034;20.656;2023-05-29T03:50:44;6.22;;;3.58;;
77298;SDS011;66361;52.034;20.656;2023-05-29T03:54:49;6.80;;;4.00;;
77298;SDS011;66361;52.034;20.656;2023-05-29T03:58:54;6.97;;;3.80;;
77298;SDS011;66361;52.034;20.656;2023-05-29T04:02:57;4.68;;;3.03;;
77298;SDS011;66361;52.034;20.656;2023-05-29T04:07:00;4.28;;;3.75;;
77298;SDS011;66361;52.034;20.656;2023-05-29T04:11:05;5.25;;;4.07;;
77298;SDS011;66361;52.034;20.656;2023-05-29T04:15:08;7.32;;;4.20;;
77298;SDS011;66361;52.034;20.656;2023-05-29T04:19:11;5.70;;;3.92;;
77298;SDS011;66361;52.034;20.656;2023-05-29T04:23:16;5.78;;;3.40;;
77298;SDS011;66361;52.034;20.656;2023-05-29T04:27:20;5.93;;;4.10;;
77298;SDS011;66361;52.034;20.656;2023-05-29T04:31:24;4.90;;;3.80;;
77298;SDS011;66361;52.034;20.656;2023-05-29T04:35:31;6.70;;;3.63;;
77298;SDS011;66361;52.034;20.656;2023-05-29T04:39:38;4.28;;;3.63;;
77298;SDS011;66361;52.034;20.656;2023-05-29T04:43:42;5.07;;;2.95;;
77298;SDS011;66361;52.034;20.656;2023-05-29T04:47:46;5.00;;;3.38;;
77298;SDS011;66361;52.034;20.656;2023-05-29T04:51:50;4.57;;;3.38;;
77298;SDS011;66361;52.034;20.656;2023-05-29T04:55:54;4.00;;;3.30;;
77298;SDS011;66361;52.034;20.656;2023-05-29T05:00:01;9.43;;;4.78;;
77298;SDS011;66361;52.034;20.656;2023-05-29T05:04:08;8.95;;;4.57;;
77298;SDS011;66361;52.034;20.656;2023-05-29T05:08:11;9.40;;;4.53;;
77298;SDS011;66361;52.034;20.656;2023-05-29T05:12:14;6.40;;;4.47;;
77298;SDS011;66361;52.034;20.656;2023-05-29T05:16:19;6.65;;;3.85;;
77298;SDS011;66361;52.034;20.656;2023-05-29T05:20:23;9.07;;;4.97;;
77298;SDS011;66361;52.034;20.656;2023-05-29T05:24:26;8.95;;;4.50;;
77298;SDS011;66361;52.034;20.656;2023-05-29T05:28:29;11.88;;;5.43;;
77298;SDS011;66361;52.034;20.656;2023-05-29T05:32:42;9.23;;;4.03;;
77298;SDS011;66361;52.034;20.656;2023-05-29T05:36:45;10.40;;;4.53;;
77298;SDS011;66361;52.034;20.656;2023-05-29T05:40:47;6.28;;;4.32;;
77298;SDS011;66361;52.034;20.656;2023-05-29T05:44:51;7.45;;;4.55;;
77298;SDS011;66361;52.034;20.656;2023-05-29T05:48:55;7.68;;;4.13;;
77298;SDS011;66361;52.034;20.656;2023-05-29T05:52:59;10.05;;;4.85;;
77298;SDS011;66361;52.034;20.656;2023-05-29T05:57:02;12.10;;;3.70;;
77298;SDS011;66361;52.034;20.656;2023-05-29T06:01:07;9.18;;;3.80;;
77298;SDS011;66361;52.034;20.656;2023-05-29T06:05:12;9.73;;;4.00;;
77298;SDS011;66361;52.034;20.656;2023-05-29T06:09:16;7.28;;;4.00;;
77298;SDS011;66361;52.034;20.656;2023-05-29T06:13:22;6.00;;;3.60;;
77298;SDS011;66361;52.034;20.656;2023-05-29T06:17:27;6.70;;;3.53;;
77298;SDS011;66361;52.034;20.656;2023-05-29T06:21:32;4.82;;;3.22;;
77298;SDS011;66361;52.034;20.656;2023-05-29T06:25:36;6.18;;;3.03;;
77298;SDS011;66361;52.034;20.656;2023-05-29T06:29:39;4.90;;;2.90;;
77298;SDS011;66361;52.034;20.656;2023-05-29T06:33:45;7.35;;;3.03;;
77298;SDS011;66361;52.034;20.656;2023-05-29T06:37:49;5.22;;;2.63;;
77298;SDS011;66361;52.034;20.656;2023-05-29T06:41:52;7.13;;;3.25;;
77298;SDS011;66361;52.034;20.656;2023-05-29T06:46:00;5.35;;;2.88;;
77298;SDS011;66361;52.034;20.656;2023-05-29T06:50:03;3.10;;;1.95;;
77298;SDS011;66361;52.034;20.656;2023-05-29T06:54:08;7.03;;;2.58;;
77298;SDS011;66361;52.034;20.656;2023-05-29T06:58:13;3.35;;;2.35;;
77298;SDS011;66361;52.034;20.656;2023-05-29T07:02:18;6.13;;;2.20;;
77298;SDS011;66361;52.034;20.656;2023-05-29T07:06:21;6.63;;;2.58;;
77298;SDS011;66361;52.034;20.656;2023-05-29T07:10:26;7.85;;;2.70;;
77298;SDS011;66361;52.034;20.656;2023-05-29T07:14:28;4.70;;;2.40;;
77298;SDS011;66361;52.034;20.656;2023-05-29T07:18:32;4.40;;;2.20;;
77298;SDS011;66361;52.034;20.656;2023-05-29T07:22:34;4.15;;;2.72;;
77298;SDS011;66361;52.034;20.656;2023-05-29T07:26:39;2.78;;;2.10;;
77298;SDS011;66361;52.034;20.656;2023-05-29T07:30:41;4.70;;;2.28;;
77298;SDS011;66361;52.034;20.656;2023-05-29T07:34:45;4.07;;;2.20;;
77298;SDS011;66361;52.034;20.656;2023-05-29T07:38:48;6.05;;;2.30;;
77298;SDS011;66361;52.034;20.656;2023-05-29T07:42:53;4.30;;;1.80;;
77298;SDS011;66361;52.034;20.656;2023-05-29T07:46:56;3.05;;;1.90;;
77298;SDS011;66361;52.034;20.656;2023-05-29T07:50:59;4.70;;;2.10;;
77298;SDS011;66361;52.034;20.656;2023-05-29T07:55:02;2.45;;;1.80;;
77298;SDS011;66361;52.034;20.656;2023-05-29T07:59:07;3.13;;;1.75;;
77298;SDS011;66361;52.034;20.656;2023-05-29T08:03:10;3.85;;;2.13;;
77298;SDS011;66361;52.034;20.656;2023-05-29T08:07:15;6.57;;;2.30;;
77298;SDS011;66361;52.034;20.656;2023-05-29T08:11:18;4.38;;;2.10;;
77298;SDS011;66361;52.034;20.656;2023-05-29T08:15:22;4.00;;;1.80;;
77298;SDS011;66361;52.034;20.656;2023-05-29T08:19:27;3.75;;;2.10;;
77298;SDS011;66361;52.034;20.656;2023-05-29T08:23:30;5.05;;;2.00;;
77298;SDS011;66361;52.034;20.656;2023-05-29T08:27:35;3.78;;;2.05;;
77298;SDS011;66361;52.034;20.656;2023-05-29T08:31:39;5.05;;;2.20;;
77298;SDS011;66361;52.034;20.656;2023-05-29T08:35:42;3.03;;;1.80;;
77298;SDS011;66361;52.034;20.656;2023-05-29T08:39:46;4.03;;;1.70;;
77298;SDS011;66361;52.034;20.656;2023-05-29T08:43:49;2.95;;;1.73;;
77298;SDS011;66361;52.034;20.656;2023-05-29T08:47:53;4.35;;;2.17;;
77298;SDS011;66361;52.034;20.656;2023-05-29T08:51:57;3.20;;;1.90;;
77298;SDS011;66361;52.034;20.656;2023-05-29T08:56:20;7.88;;;2.47;;
77298;SDS011;66361;52.034;20.656;2023-05-29T09:00:34;4.22;;;2.00;;
77298;SDS011;66361;52.034;20.656;2023-05-29T09:04:39;3.15;;;1.70;;
77298;SDS011;66361;52.034;20.656;2023-05-29T09:08:46;3.33;;;2.10;;
77298;SDS011;66361;52.034;20.656;2023-05-29T09:12:49;4.03;;;1.92;;
77298;SDS011;66361;52.034;20.656;2023-05-29T09:16:52;4.05;;;1.90;;
77298;SDS011;66361;52.034;20.656;2023-05-29T09:20:56;5.60;;;2.10;;
77298;SDS011;66361;52.034;20.656;2023-05-29T09:25:03;4.00;;;2.58;;
77298;SDS011;66361;52.034;20.656;2023-05-29T09:29:06;3.47;;;2.00;;
77298;SDS011;66361;52.034;20.656;2023-05-29T09:33:11;10.15;;;2.30;;
77298;SDS011;66361;52.034;20.656;2023-05-29T09:37:16;6.40;;;2.50;;
77298;SDS011;66361;52.034;20.656;2023-05-29T09:41:23;5.97;;;2.25;;
77298;SDS011;66361;52.034;20.656;2023-05-29T09:45:27;2.92;;;2.30;;
77298;SDS011;66361;52.034;20.656;2023-05-29T09:49:30;8.38;;;2.70;;
77298;SDS011;66361;52.034;20.656;2023-05-29T09:53:35;5.30;;;2.33;;
77298;SDS011;66361;52.034;20.656;2023-05-29T09:57:44;3.20;;;2.05;;
77298;SDS011;66361;52.034;20.656;2023-05-29T10:01:49;4.25;;;2.22;;
77298;SDS011;66361;52.034;20.656;2023-05-29T10:06:03;2.80;;;2.08;;
77298;SDS011;66361;52.034;20.656;2023-05-29T10:10:12;4.07;;;2.10;;
77298;SDS011;66361;52.034;20.656;2023-05-29T10:14:17;4.45;;;2.15;;
77298;SDS011;66361;52.034;20.656;2023-05-29T10:18:23;6.57;;;2.10;;
77298;SDS011;66361;52.034;20.656;2023-05-29T10:22:29;6.40;;;2.35;;
77298;SDS011;66361;52.034;20.656;2023-05-29T10:26:36;4.45;;;2.47;;
77298;SDS011;66361;52.034;20.656;2023-05-29T10:30:41;2.92;;;2.13;;
77298;SDS011;66361;52.034;20.656;2023-05-29T10:34:55;3.75;;;2.40;;
77298;SDS011;66361;52.034;20.656;2023-05-29T10:39:03;4.32;;;2.30;;
77298;SDS011;66361;52.034;20.656;2023-05-29T10:43:08;5.45;;;2.13;;
77298;SDS011;66361;52.034;20.656;2023-05-29T10:47:12;4.20;;;2.40;;
77298;SDS011;66361;52.034;20.656;2023-05-29T10:51:27;4.85;;;2.65;;
77298;SDS011;66361;52.034;20.656;2023-05-29T10:55:33;4.82;;;2.60;;
77298;SDS011;66361;52.034;20.656;2023-05-29T10:59:38;4.70;;;2.70;;
77298;SDS011;66361;52.034;20.656;2023-05-29T11:03:41;8.82;;;2.50;;
77298;SDS011;66361;52.034;20.656;2023-05-29T11:07:50;6.18;;;2.53;;
77298;SDS011;66361;52.034;20.656;2023-05-29T11:20:46;4.78;;;3.10;;
77298;SDS011;66361;52.034;20.656;2023-05-29T11:24:56;7.07;;;2.60;;
77298;SDS011;66361;52.034;20.656;2023-05-29T11:29:00;4.78;;;2.33;;
77298;SDS011;66361;52.034;20.656;2023-05-29T11:33:07;4.32;;;2.63;;
77298;SDS011;66361;52.034;20.656;2023-05-29T11:37:18;5.25;;;2.35;;
77298;SDS011;66361;52.034;20.656;2023-05-29T11:41:21;4.15;;;2.28;;
77298;SDS011;66361;52.034;20.656;2023-05-29T11:45:25;4.40;;;2.50;;
77298;SDS011;66361;52.034;20.656;2023-05-29T11:49:30;5.63;;;2.53;;
77298;SDS011;66361;52.034;20.656;2023-05-29T11:53:34;4.85;;;2.58;;
77298;SDS011;66361;52.034;20.656;2023-05-29T11:57:37;8.45;;;2.50;;
77298;SDS011;66361;52.034;20.656;2023-05-29T12:01:40;3.28;;;2.72;;
77298;SDS011;66361;52.034;20.656;2023-05-29T12:05:46;6.30;;;2.33;;
77298;SDS011;66361;52.034;20.656;2023-05-29T12:09:54;4.38;;;2.30;;
77298;SDS011;66361;52.034;20.656;2023-05-29T12:13:59;4.18;;;2.40;;
77298;SDS011;66361;52.034;20.656;2023-05-29T12:18:03;5.22;;;2.67;;
77298;SDS011;66361;52.034;20.656;2023-05-29T12:22:09;3.38;;;2.20;;
77298;SDS011;66361;52.034;20.656;2023-05-29T12:26:12;4.50;;;2.30;;
77298;SDS011;66361;52.034;20.656;2023-05-29T12:30:19;4.57;;;2.55;;
77298;SDS011;66361;52.034;20.656;2023-05-29T12:34:34;6.00;;;3.00;;
77298;SDS011;66361;52.034;20.656;2023-05-29T12:43:02;6.65;;;2.38;;
77298;SDS011;66361;52.034;20.656;2023-05-29T12:47:06;3.33;;;2.10;;
77298;SDS011;66361;52.034;20.656;2023-05-29T12:51:09;4.30;;;2.65;;
77298;SDS011;66361;52.034;20.656;2023-05-29T12:55:14;3.15;;;2.65;;
77298;SDS011;66361;52.034;20.656;2023-05-29T12:59:17;4.10;;;2.10;;
77298;SDS011;66361;52.034;20.656;2023-05-29T13:03:20;4.68;;;2.40;;
77298;SDS011;66361;52.034;20.656;2023-05-29T13:07:24;4.20;;;2.50;;
77298;SDS011;66361;52.034;20.656;2023-05-29T13:11:32;3.35;;;2.17;;
77298;SDS011;66361;52.034;20.656;2023-05-29T13:15:38;4.70;;;2.63;;
77298;SDS011;66361;52.034;20.656;2023-05-29T13:19:41;3.33;;;2.25;;
77298;SDS011;66361;52.034;20.656;2023-05-29T13:23:45;3.42;;;2.47;;
77298;SDS011;66361;52.034;20.656;2023-05-29T13:27:49;5.22;;;2.75;;
77298;SDS011;66361;52.034;20.656;2023-05-29T13:31:53;4.45;;;2.15;;
77298;SDS011;66361;52.034;20.656;2023-05-29T13:35:56;8.05;;;2.80;;
77298;SDS011;66361;52.034;20.656;2023-05-29T13:39:59;3.45;;;2.60;;
77298;SDS011;66361;52.034;20.656;2023-05-29T13:44:04;3.50;;;2.30;;
77298;SDS011;66361;52.034;20.656;2023-05-29T13:48:07;5.13;;;2.80;;
77298;SDS011;66361;52.034;20.656;2023-05-29T13:52:10;2.92;;;2.20;;
77298;SDS011;66361;52.034;20.656;2023-05-29T13:56:13;3.33;;;2.30;;
77298;SDS011;66361;52.034;20.656;2023-05-29T14:00:18;5.88;;;2.53;;
77298;SDS011;66361;52.034;20.656;2023-05-29T14:04:22;4.30;;;2.58;;
77298;SDS011;66361;52.034;20.656;2023-05-29T14:08:25;4.57;;;2.42;;
77298;SDS011;66361;52.034;20.656;2023-05-29T14:12:28;4.07;;;2.95;;
77298;SDS011;66361;52.034;20.656;2023-05-29T14:16:34;3.88;;;2.20;;
77298;SDS011;66361;52.034;20.656;2023-05-29T14:20:38;3.78;;;2.42;;
77298;SDS011;66361;52.034;20.656;2023-05-29T14:24:41;6.55;;;2.40;;
77298;SDS011;66361;52.034;20.656;2023-05-29T14:28:44;4.38;;;2.60;;
77298;SDS011;66361;52.034;20.656;2023-05-29T14:32:49;3.83;;;2.53;;
77298;SDS011;66361;52.034;20.656;2023-05-29T14:36:51;2.95;;;2.20;;
77298;SDS011;66361;52.034;20.656;2023-05-29T14:40:54;2.90;;;2.58;;
77298;SDS011;66361;52.034;20.656;2023-05-29T14:45:09;4.65;;;2.50;;
77298;SDS011;66361;52.034;20.656;2023-05-29T14:49:14;6.03;;;2.50;;
77298;SDS011;66361;52.034;20.656;2023-05-29T14:53:17;5.00;;;2.60;;
77298;SDS011;66361;52.034;20.656;2023-05-29T14:57:22;3.78;;;2.53;;
77298;SDS011;66361;52.034;20.656;2023-05-29T15:01:25;4.38;;;2.60;;
77298;SDS011;66361;52.034;20.656;2023-05-29T15:05:30;5.22;;;2.40;;
77298;SDS011;66361;52.034;20.656;2023-05-29T15:09:33;3.63;;;2.58;;
77298;SDS011;66361;52.034;20.656;2023-05-29T15:13:36;4.38;;;2.75;;
77298;SDS011;66361;52.034;20.656;2023-05-29T15:17:39;6.15;;;2.80;;
77298;SDS011;66361;52.034;20.656;2023-05-29T15:21:43;3.03;;;2.50;;
77298;SDS011;66361;52.034;20.656;2023-05-29T15:25:47;4.13;;;2.60;;
77298;SDS011;66361;52.034;20.656;2023-05-29T15:29:50;3.85;;;2.47;;
77298;SDS011;66361;52.034;20.656;2023-05-29T15:33:53;4.93;;;2.88;;
77298;SDS011;66361;52.034;20.656;2023-05-29T15:37:57;6.43;;;2.70;;
77298;SDS011;66361;52.034;20.656;2023-05-29T15:42:01;3.08;;;2.38;;
77298;SDS011;66361;52.034;20.656;2023-05-29T15:46:05;4.45;;;2.53;;
77298;SDS011;66361;52.034;20.656;2023-05-29T15:50:09;9.38;;;2.70;;
77298;SDS011;66361;52.034;20.656;2023-05-29T15:54:14;3.53;;;2.83;;
77298;SDS011;66361;52.034;20.656;2023-05-29T15:58:17;3.88;;;2.47;;
77298;SDS011;66361;52.034;20.656;2023-05-29T16:02:20;8.77;;;2.85;;
77298;SDS011;66361;52.034;20.656;2023-05-29T16:06:23;3.72;;;2.90;;
77298;SDS011;66361;52.034;20.656;2023-05-29T16:10:27;4.78;;;2.90;;
77298;SDS011;66361;52.034;20.656;2023-05-29T16:14:30;5.88;;;2.67;;
77298;SDS011;66361;52.034;20.656;2023-05-29T16:18:33;6.80;;;2.80;;
77298;SDS011;66361;52.034;20.656;2023-05-29T16:22:38;4.60;;;2.95;;
77298;SDS011;66361;52.034;20.656;2023-05-29T16:26:45;5.50;;;2.70;;
77298;SDS011;66361;52.034;20.656;2023-05-29T16:30:48;4.85;;;2.88;;
77298;SDS011;66361;52.034;20.656;2023-05-29T16:34:51;4.32;;;3.22;;
77298;SDS011;66361;52.034;20.656;2023-05-29T16:38:55;5.65;;;2.70;;
77298;SDS011;66361;52.034;20.656;2023-05-29T16:43:00;5.38;;;3.03;;
77298;SDS011;66361;52.034;20.656;2023-05-29T16:47:03;7.80;;;4.13;;
77298;SDS011;66361;52.034;20.656;2023-05-29T16:51:06;6.32;;;2.75;;
77298;SDS011;66361;52.034;20.656;2023-05-29T16:55:10;7.07;;;2.90;;
77298;SDS011;66361;52.034;20.656;2023-05-29T16:59:14;5.57;;;3.15;;
77298;SDS011;66361;52.034;20.656;2023-05-29T17:03:18;6.47;;;3.05;;
77298;SDS011;66361;52.034;20.656;2023-05-29T17:07:20;3.70;;;3.22;;
77298;SDS011;66361;52.034;20.656;2023-05-29T17:11:23;4.03;;;2.70;;
77298;SDS011;66361;52.034;20.656;2023-05-29T17:15:29;4.82;;;3.22;;
77298;SDS011;66361;52.034;20.656;2023-05-29T17:19:34;6.60;;;2.78;;
77298;SDS011;66361;52.034;20.656;2023-05-29T17:23:37;3.13;;;2.70;;
77298;SDS011;66361;52.034;20.656;2023-05-29T17:27:40;4.35;;;3.22;;
77298;SDS011;66361;52.034;20.656;2023-05-29T17:31:45;3.50;;;2.70;;
77298;SDS011;66361;52.034;20.656;2023-05-29T17:35:48;8.80;;;3.20;;
77298;SDS011;66361;52.034;20.656;2023-05-29T17:39:51;4.45;;;2.58;;
77298;SDS011;66361;52.034;20.656;2023-05-29T17:43:55;8.38;;;3.33;;
77298;SDS011;66361;52.034;20.656;2023-05-29T17:48:00;57.85;;;5.45;;
77298;SDS011;66361;52.034;20.656;2023-05-29T17:52:04;15.30;;;4.22;;
77298;SDS011;66361;52.034;20.656;2023-05-29T17:56:08;7.60;;;2.83;;
77298;SDS011;66361;52.034;20.656;2023-05-29T18:00:11;10.95;;;3.70;;
77298;SDS011;66361;52.034;20.656;2023-05-29T18:04:17;13.23;;;3.53;;
77298;SDS011;66361;52.034;20.656;2023-05-29T18:08:19;7.68;;;2.92;;
77298;SDS011;66361;52.034;20.656;2023-05-29T18:12:22;10.70;;;3.70;;
77298;SDS011;66361;52.034;20.656;2023-05-29T18:16:44;4.57;;;2.95;;
77298;SDS011;66361;52.034;20.656;2023-05-29T18:20:50;7.15;;;3.40;;
77298;SDS011;66361;52.034;20.656;2023-05-29T18:24:53;4.75;;;3.58;;
77298;SDS011;66361;52.034;20.656;2023-05-29T18:28:56;5.90;;;3.95;;
77298;SDS011;66361;52.034;20.656;2023-05-29T18:33:01;6.38;;;4.22;;
77298;SDS011;66361;52.034;20.656;2023-05-29T18:37:09;9.88;;;6.25;;
77298;SDS011;66361;52.034;20.656;2023-05-29T18:41:12;9.80;;;5.70;;
77298;SDS011;66361;52.034;20.656;2023-05-29T18:45:15;8.40;;;6.03;;
77298;SDS011;66361;52.034;20.656;2023-05-29T18:49:18;9.52;;;5.82;;
77298;SDS011;66361;52.034;20.656;2023-05-29T18:53:24;10.25;;;6.28;;
77298;SDS011;66361;52.034;20.656;2023-05-29T18:57:27;9.75;;;6.85;;
77298;SDS011;66361;52.034;20.656;2023-05-29T19:01:30;7.95;;;6.40;;
77298;SDS011;66361;52.034;20.656;2023-05-29T19:05:34;12.32;;;6.90;;
77298;SDS011;66361;52.034;20.656;2023-05-29T19:09:40;13.32;;;7.15;;
77298;SDS011;66361;52.034;20.656;2023-05-29T19:13:44;9.45;;;6.72;;
77298;SDS011;66361;52.034;20.656;2023-05-29T19:17:50;11.15;;;7.13;;
77298;SDS011;66361;52.034;20.656;2023-05-29T19:21:53;10.98;;;6.82;;
77298;SDS011;66361;52.034;20.656;2023-05-29T19:26:01;7.80;;;6.18;;
77298;SDS011;66361;52.034;20.656;2023-05-29T19:30:08;8.82;;;6.65;;
77298;SDS011;66361;52.034;20.656;2023-05-29T19:34:11;12.77;;;6.38;;
77298;SDS011;66361;52.034;20.656;2023-05-29T19:38:15;11.18;;;6.20;;
77298;SDS011;66361;52.034;20.656;2023-05-29T19:42:20;10.20;;;6.07;;
77298;SDS011;66361;52.034;20.656;2023-05-29T19:46:25;8.90;;;6.30;;
77298;SDS011;66361;52.034;20.656;2023-05-29T19:50:28;6.22;;;4.80;;
77298;SDS011;66361;52.034;20.656;2023-05-29T19:54:31;10.15;;;6.25;;
77298;SDS011;66361;52.034;20.656;2023-05-29T19:58:36;11.70;;;6.88;;
77298;SDS011;66361;52.034;20.656;2023-05-29T20:02:39;9.73;;;5.78;;
77298;SDS011;66361;52.034;20.656;2023-05-29T20:06:42;7.57;;;6.18;;
77298;SDS011;66361;52.034;20.656;2023-05-29T20:10:45;8.45;;;5.28;;
77298;SDS011;66361;52.034;20.656;2023-05-29T20:15:00;7.28;;;4.45;;
77298;SDS011;66361;52.034;20.656;2023-05-29T20:19:03;7.00;;;5.88;;
77298;SDS011;66361;52.034;20.656;2023-05-29T20:23:06;11.05;;;6.38;;
77298;SDS011;66361;52.034;20.656;2023-05-29T20:27:12;9.55;;;5.82;;
77298;SDS011;66361;52.034;20.656;2023-05-29T20:31:17;9.90;;;5.68;;
77298;SDS011;66361;52.034;20.656;2023-05-29T20:35:21;8.95;;;6.15;;
77298;SDS011;66361;52.034;20.656;2023-05-29T20:39:24;7.05;;;5.38;;
77298;SDS011;66361;52.034;20.656;2023-05-29T20:43:30;12.15;;;5.57;;
77298;SDS011;66361;52.034;20.656;2023-05-29T20:47:42;9.07;;;6.25;;
77298;SDS011;66361;52.034;20.656;2023-05-29T20:51:45;10.10;;;6.53;;
77298;SDS011;66361;52.034;20.656;2023-05-29T20:55:49;13.23;;;6.53;;
77298;SDS011;66361;52.034;20.656;2023-05-29T20:59:52;8.98;;;5.88;;
77298;SDS011;66361;52.034;20.656;2023-05-29T21:03:57;8.88;;;5.68;;
77298;SDS011;66361;52.034;20.656;2023-05-29T21:08:01;29.30;;;7.90;;
77298;SDS011;66361;52.034;20.656;2023-05-29T21:12:04;12.75;;;7.03;;
77298;SDS011;66361;52.034;20.656;2023-05-29T21:16:11;9.23;;;5.63;;
77298;SDS011;66361;52.034;20.656;2023-05-29T21:20:15;12.13;;;6.93;;
77298;SDS011;66361;52.034;20.656;2023-05-29T21:24:19;12.38;;;6.40;;
77298;SDS011;66361;52.034;20.656;2023-05-29T21:32:24;10.52;;;6.25;;
77298;SDS011;66361;52.034;20.656;2023-05-29T21:36:30;9.93;;;7.10;;
77298;SDS011;66361;52.034;20.656;2023-05-29T21:40:33;8.88;;;6.05;;
77298;SDS011;66361;52.034;20.656;2023-05-29T21:44:36;12.00;;;6.00;;
77298;SDS011;66361;52.034;20.656;2023-05-29T21:48:40;15.60;;;6.72;;
77298;SDS011;66361;52.034;20.656;2023-05-29T21:52:45;9.57;;;6.13;;
77298;SDS011;66361;52.034;20.656;2023-05-29T21:56:48;7.65;;;5.45;;
77298;SDS011;66361;52.034;20.656;2023-05-29T22:00:51;7.30;;;5.40;;
77298;SDS011;66361;52.034;20.656;2023-05-29T22:04:55;7.80;;;5.95;;
77298;SDS011;66361;52.034;20.656;2023-05-29T22:08:59;7.32;;;5.70;;
77298;SDS011;66361;52.034;20.656;2023-05-29T22:13:02;10.25;;;6.50;;
77298;SDS011;66361;52.034;20.656;2023-05-29T22:17:07;9.15;;;5.22;;
77298;SDS011;66361;52.034;20.656;2023-05-29T22:21:13;8.98;;;5.80;;
77298;SDS011;66361;52.034;20.656;2023-05-29T22:25:19;8.18;;;5.38;;
77298;SDS011;66361;52.034;20.656;2023-05-29T22:29:23;12.70;;;6.38;;
77298;SDS011;66361;52.034;20.656;2023-05-29T22:33:26;9.18;;;4.95;;
77298;SDS011;66361;52.034;20.656;2023-05-29T22:37:31;7.60;;;5.50;;
77298;SDS011;66361;52.034;20.656;2023-05-29T22:41:35;9.10;;;5.45;;
77298;SDS011;66361;52.034;20.656;2023-05-29T22:45:38;8.20;;;5.70;;
77298;SDS011;66361;52.034;20.656;2023-05-29T22:49:41;10.15;;;5.30;;
77298;SDS011;66361;52.034;20.656;2023-05-29T22:53:44;10.10;;;5.18;;
77298;SDS011;66361;52.034;20.656;2023-05-29T22:57:51;10.90;;;5.65;;
77298;SDS011;66361;52.034;20.656;2023-05-29T23:01:55;9.35;;;5.28;;
77298;SDS011;66361;52.034;20.656;2023-05-29T23:05:58;8.27;;;5.47;;
77298;SDS011;66361;52.034;20.656;2023-05-29T23:10:02;8.38;;;5.80;;
77298;SDS011;66361;52.034;20.656;2023-05-29T23:14:06;10.15;;;4.82;;
77298;SDS011;66361;52.034;20.656;2023-05-29T23:18:13;7.47;;;5.47;;
77298;SDS011;66361;52.034;20.656;2023-05-29T23:22:16;8.52;;;5.57;;
77298;SDS011;66361;52.034;20.656;2023-05-29T23:26:19;7.95;;;5.10;;
77298;SDS011;66361;52.034;20.656;2023-05-29T23:30:24;9.38;;;5.00;;
77298;SDS011;66361;52.034;20.656;2023-05-29T23:34:27;5.97;;;5.13;;
77298;SDS011;66361;52.034;20.656;2023-05-29T23:38:30;6.75;;;4.30;;
77298;SDS011;66361;52.034;20.656;2023-05-29T23:42:33;6.40;;;4.28;;
77298;SDS011;66361;52.034;20.656;2023-05-29T23:46:38;10.93;;;4.55;;
77298;SDS011;66361;52.034;20.656;2023-05-29T23:50:42;9.63;;;4.75;;
77298;SDS011;66361;52.034;20.656;2023-05-29T23:54:47;8.23;;;4.35;;
